Impacts METAR Board
IDs:

KPIT - Pittsburgh Intl, PA, US

Updated at: 2100 UTC 08 Feb 2023
Potential Impact None Slight Moderate High
Time 08/09Z 08/10Z 08/11Z 08/12Z 08/13Z 08/14Z 08/15Z 08/16Z 08/17Z 08/18Z 08/19Z 08/20Z 08/21Z
Temp39 36 38 37 37 36 40 39 43 47 47 47 47
Dewpt36 34 32 32 32 31 29 27 28 28 28 28 31
Altim30.19 30.21 30.23 30.24 30.27 30.29 30.30 30.31 30.30 30.26 30.26 30.26 30.26
VIS8 7 6 6 7 8 8 8 10 10 10 10 10
CIG50 14 16 16 17 17 18 20 250 250 250 250 250
CoverOVCOVCOVCOVCOVCOVCOVCBKNBKNBKNBKNOVCOVC
FltCatVFRMVFRMVFRMVFRMVFRMVFRMVFRMVFRVFRVFRVFRVFRVFR
WX----BRBR------------------
WDir35033032031031033026002900200200200
WSpd6 13 6 6 7 4 3 0 3 0 4 4 3
WGst-- -- -- -- -- -- -- -- -- -- -- -- --
Raw hourly METARs
KPIT 080851Z 35006KT 8SM SCT025 OVC050 04/02 A3019 RMK T00390022
KPIT 080951Z 33013KT 7SM FEW009 BKN014 OVC030 02/01 A3021 RMK T00220011
KPIT 081051Z 32006KT 6SM BR BKN016 OVC030 03/00 A3023 RMK T00310000
KPIT 081151Z 31006KT 6SM BR OVC016 03/00 A3024 RMK T00300000
KPIT 081251Z 31007KT 7SM OVC017 03/00 A3027 RMK T00300002
KPIT 081351Z COR 33004KT 8SM OVC017 02/M01 A3029 RMK T00221006
KPIT 081451Z 26003KT 8SM OVC018 05/M02 A3030 RMK T00461016
KPIT 081551Z 00000KT 8SM BKN020 BKN250 04/M03 A3031 RMK T00411028
KPIT 081651Z COR 29003KT 10SM FEW020 BKN250 06/M02 A3030 RMK T00611022
KPIT 081751Z 00000KT 10SM BKN250 08/M02 A3026 RMK T00831020
KPIT 081851Z 20004KT 10SM BKN250 08/M02 A3026 RMK T00821021
KPIT 081951Z COR 20004KT 10SM OVC250 08/M02 A3026 RMK T00821020
KPIT 082051Z 20003KT 10SM OVC250 08/M01 A3026 RMK T00821008



Page loaded:  21:01 UTC  |   01:01 PM Pacific  |   02:01 PM Mountain  |   03:01 PM Central  |   04:01 PM Eastern

 

ADVISORIES

FORECASTS

FORECASTS

OBSERVATIONS

USER TOOLS

ABOUT US